createdAt,value
2022-10-20T00:00:22.160Z,14.40
2022-10-20T00:02:49.651Z,13.95
2022-10-20T00:05:16.834Z,15.20
2022-10-20T00:07:44.015Z,13.00
2022-10-20T00:10:11.338Z,13.23
2022-10-20T00:12:38.758Z,13.53
2022-10-20T00:15:06.277Z,13.63
2022-10-20T00:17:33.392Z,13.27
2022-10-20T00:20:00.540Z,13.70
2022-10-20T00:22:27.765Z,13.73
2022-10-20T00:24:54.875Z,13.95
2022-10-20T00:27:22.438Z,13.57
2022-10-20T00:29:50.088Z,14.20
2022-10-20T00:32:17.211Z,13.80
2022-10-20T00:34:44.316Z,14.25
2022-10-20T00:37:11.433Z,13.07
2022-10-20T00:39:39.019Z,13.55
2022-10-20T00:42:06.452Z,12.93
2022-10-20T00:44:50.563Z,12.95
2022-10-20T00:47:20.377Z,13.52
2022-10-20T00:49:48.164Z,13.82
2022-10-20T00:52:18.260Z,13.52
2022-10-20T00:54:45.516Z,13.32
2022-10-20T00:57:12.927Z,13.70
2022-10-20T00:59:40.457Z,14.10
2022-10-20T01:02:08.213Z,13.82
2022-10-20T01:04:35.589Z,13.02
2022-10-20T01:07:02.740Z,12.87
2022-10-20T01:09:30.130Z,13.48
2022-10-20T01:12:03.006Z,12.93
2022-10-20T01:14:30.127Z,13.73
2022-10-20T01:17:16.467Z,13.40
2022-10-20T01:20:02.174Z,13.60
2022-10-20T01:22:48.690Z,13.23
2022-10-20T01:25:23.843Z,12.77
2022-10-20T01:27:56.420Z,13.45
2022-10-20T01:30:24.555Z,14.05
2022-10-20T01:33:06.703Z,13.50
2022-10-20T01:35:36.615Z,13.00
2022-10-20T01:38:16.942Z,13.88
2022-10-20T01:40:44.044Z,13.73
2022-10-20T01:43:13.645Z,13.80
2022-10-20T01:45:42.901Z,12.93
2022-10-20T01:48:10.684Z,13.45
2022-10-20T01:50:39.201Z,13.60
2022-10-20T01:53:06.619Z,13.32
2022-10-20T01:55:34.319Z,12.73
2022-10-20T01:58:30.481Z,13.18
2022-10-20T02:01:03.765Z,13.38
2022-10-20T02:03:44.306Z,13.70
2022-10-20T02:06:24.223Z,13.55
2022-10-20T02:08:53.301Z,12.75
2022-10-20T02:11:26.404Z,13.50
2022-10-20T02:13:55.277Z,13.82
2022-10-20T02:16:29.766Z,13.18
2022-10-20T02:18:57.160Z,13.88
2022-10-20T02:21:26.495Z,13.47
2022-10-20T02:23:54.780Z,12.85
2022-10-20T02:28:50.681Z,13.23
2022-10-20T02:31:18.780Z,12.77
2022-10-20T02:33:46.825Z,12.98
2022-10-20T02:36:17.399Z,13.55
2022-10-20T02:38:44.571Z,13.02
2022-10-20T02:41:11.749Z,13.25
2022-10-20T02:43:39.137Z,13.35
2022-10-20T02:46:06.398Z,13.30
2022-10-20T02:48:33.560Z,13.10
2022-10-20T02:51:00.729Z,12.55
2022-10-20T02:53:27.894Z,13.98
2022-10-20T02:55:55.048Z,14.32
2022-10-20T02:58:22.183Z,13.63
2022-10-20T03:00:52.206Z,13.70
2022-10-20T03:03:19.568Z,13.98
2022-10-20T03:05:47.592Z,13.80
2022-10-20T03:08:15.456Z,13.50
2022-10-20T03:10:42.811Z,13.75
2022-10-20T03:13:10.752Z,13.40
2022-10-20T03:15:38.859Z,13.25
2022-10-20T03:18:05.977Z,13.63
2022-10-20T03:20:35.581Z,13.18
2022-10-20T03:23:02.686Z,13.73
2022-10-20T03:25:31.466Z,13.00
2022-10-20T03:27:59.760Z,13.52
2022-10-20T03:32:54.276Z,13.57
2022-10-20T03:35:21.384Z,13.80
2022-10-20T03:37:48.509Z,13.80
2022-10-20T03:40:15.654Z,13.25
2022-10-20T03:42:42.759Z,13.88
2022-10-20T03:45:14.933Z,13.60
2022-10-20T03:47:44.878Z,13.60
2022-10-20T03:50:12.001Z,12.93
2022-10-20T03:52:39.252Z,12.95
2022-10-20T03:55:06.670Z,13.23
2022-10-20T03:57:34.056Z,13.82
2022-10-20T04:00:01.405Z,13.20
2022-10-20T04:02:34.265Z,13.27
2022-10-20T04:05:02.248Z,13.27
2022-10-20T04:07:29.368Z,12.77
2022-10-20T04:09:56.554Z,13.55
2022-10-20T04:12:24.081Z,13.23
2022-10-20T04:14:51.388Z,13.95
2022-10-20T04:17:18.502Z,13.97
2022-10-20T04:19:46.064Z,13.18
2022-10-20T04:22:13.347Z,13.25
2022-10-20T04:24:40.599Z,13.20
2022-10-20T04:27:07.833Z,13.50
2022-10-20T04:29:35.019Z,13.73
2022-10-20T04:32:02.106Z,13.65
2022-10-20T04:34:29.238Z,13.35
2022-10-20T04:36:56.336Z,12.55
2022-10-20T04:39:23.496Z,13.30
2022-10-20T04:41:50.605Z,13.43
2022-10-20T04:44:17.787Z,12.43
2022-10-20T04:46:44.955Z,12.70
2022-10-20T04:49:12.087Z,13.02
2022-10-20T04:51:39.242Z,12.45
2022-10-20T04:54:06.408Z,13.13
2022-10-20T04:56:36.117Z,13.40
2022-10-20T04:59:03.274Z,13.35
2022-10-20T05:01:31.076Z,13.85
2022-10-20T05:03:58.504Z,13.95
2022-10-20T05:06:26.852Z,13.88
2022-10-20T05:08:55.049Z,15.52
2022-10-20T05:13:49.183Z,20.02
2022-10-20T05:16:19.496Z,16.45
2022-10-20T05:18:47.054Z,16.00
2022-10-20T05:21:15.713Z,14.98
2022-10-20T05:23:43.352Z,14.30
2022-10-20T05:26:11.999Z,27.77
2022-10-20T05:28:39.225Z,19.17
2022-10-20T05:31:07.428Z,24.42
2022-10-20T05:36:01.572Z,16.00
2022-10-20T05:38:28.655Z,15.40
2022-10-20T05:40:55.789Z,17.00
2022-10-20T05:43:22.994Z,19.88
2022-10-20T05:45:54.809Z,19.83
2022-10-20T05:48:21.965Z,13.48
2022-10-20T05:50:49.085Z,12.73
2022-10-20T05:53:16.196Z,13.70
2022-10-20T05:55:43.304Z,15.20
2022-10-20T05:58:10.453Z,14.95
2022-10-20T06:00:42.089Z,13.80
2022-10-20T06:03:13.949Z,18.17
2022-10-20T06:05:44.478Z,13.80
2022-10-20T06:08:11.586Z,13.07
2022-10-20T06:10:38.709Z,13.30
2022-10-20T06:13:05.847Z,11.35
2022-10-20T06:15:33.327Z,11.73
2022-10-20T06:18:00.403Z,13.73
2022-10-20T06:20:27.626Z,11.75
2022-10-20T06:22:54.742Z,12.20
2022-10-20T06:25:21.912Z,11.07
2022-10-20T06:27:49.043Z,11.90
2022-10-20T06:30:16.226Z,11.40
2022-10-20T06:32:43.417Z,16.75
2022-10-20T06:35:10.560Z,11.70
2022-10-20T06:37:37.728Z,11.45
2022-10-20T06:40:04.983Z,10.40
2022-10-20T06:42:32.712Z,12.65
2022-10-20T06:44:59.872Z,13.18
2022-10-20T06:47:30.510Z,11.45
2022-10-20T06:49:57.623Z,11.43
2022-10-20T06:52:24.782Z,11.50
2022-10-20T06:54:52.512Z,12.20
2022-10-20T06:57:20.171Z,11.55
2022-10-20T06:59:48.508Z,11.63
2022-10-20T07:04:43.539Z,11.52
2022-10-20T07:07:10.752Z,13.17
2022-10-20T07:09:37.896Z,11.30
2022-10-20T07:12:05.577Z,13.32
2022-10-20T07:14:32.791Z,11.20
2022-10-20T07:16:59.903Z,11.32
2022-10-20T07:19:27.031Z,11.18
2022-10-20T07:21:54.170Z,11.50
2022-10-20T07:24:21.338Z,11.45
2022-10-20T07:26:48.488Z,12.00
2022-10-20T07:29:15.680Z,11.02
2022-10-20T07:31:44.384Z,10.32
2022-10-20T07:34:28.112Z,10.40
2022-10-20T07:36:56.404Z,11.00
2022-10-20T07:41:50.832Z,10.40
2022-10-20T07:44:18.097Z,11.60
2022-10-20T07:46:45.259Z,11.07
2022-10-20T07:54:23.137Z,11.52
2022-10-20T07:56:50.253Z,11.75
2022-10-20T07:59:17.610Z,11.27
2022-10-20T08:01:44.855Z,10.53
2022-10-20T08:04:12.149Z,11.50
2022-10-20T08:06:39.597Z,11.38
2022-10-20T08:09:07.382Z,13.43
2022-10-20T08:11:34.829Z,13.77
2022-10-20T08:14:02.022Z,18.55
2022-10-20T08:16:33.970Z,13.50
2022-10-20T08:19:15.454Z,16.20
2022-10-20T08:21:42.590Z,18.10
2022-10-20T08:24:09.708Z,19.70
2022-10-20T08:26:36.820Z,13.88
2022-10-20T08:29:04.002Z,12.10
2022-10-20T08:31:31.151Z,16.90
2022-10-20T08:33:59.715Z,17.42
2022-10-20T08:36:28.306Z,15.20
2022-10-20T08:38:56.405Z,11.48
2022-10-20T08:41:34.456Z,13.40
2022-10-20T08:44:03.287Z,11.93
2022-10-20T08:46:36.297Z,14.65
2022-10-20T08:49:04.904Z,14.27
2022-10-20T08:51:33.166Z,12.60
2022-10-20T08:56:29.249Z,17.60
2022-10-20T08:58:56.905Z,12.63
2022-10-20T09:01:29.234Z,15.65
2022-10-20T09:03:58.815Z,18.65
2022-10-20T09:06:26.172Z,15.63
2022-10-20T09:08:54.040Z,17.20
2022-10-20T09:11:23.884Z,60.20
2022-10-20T09:13:51.085Z,20.23
2022-10-20T09:16:42.171Z,15.00
2022-10-20T09:19:27.791Z,15.60
2022-10-20T09:21:59.223Z,13.93
2022-10-20T09:24:29.888Z,13.95
2022-10-20T09:26:59.864Z,14.07
2022-10-20T09:29:38.800Z,13.50
2022-10-20T09:32:34.355Z,14.73
2022-10-20T09:35:25.146Z,13.50
2022-10-20T09:40:19.745Z,14.07
2022-10-20T09:42:57.667Z,14.35
2022-10-20T09:45:28.793Z,14.63
2022-10-20T09:48:14.759Z,15.05
2022-10-20T09:50:46.896Z,13.25
2022-10-20T09:53:20.612Z,16.77
2022-10-20T09:55:49.354Z,15.23
2022-10-20T09:58:21.722Z,14.88
2022-10-20T10:00:56.550Z,13.70
2022-10-20T10:03:23.989Z,14.13
2022-10-20T10:06:00.762Z,14.50
2022-10-20T10:08:42.839Z,15.38
2022-10-20T10:11:15.681Z,14.63
2022-10-20T10:13:44.569Z,17.27
2022-10-20T10:16:14.566Z,15.15
2022-10-20T10:18:46.856Z,16.25
2022-10-20T10:21:17.471Z,14.50
2022-10-20T10:23:52.012Z,15.07
2022-10-20T10:26:34.406Z,13.48
2022-10-20T10:29:01.498Z,13.90
2022-10-20T10:31:28.638Z,15.55
2022-10-20T10:34:15.999Z,14.82
2022-10-20T10:36:43.278Z,13.75
2022-10-20T10:39:14.643Z,16.48
2022-10-20T10:41:50.542Z,12.70
2022-10-20T10:44:17.649Z,15.25
2022-10-20T10:46:52.209Z,15.18
2022-10-20T10:49:33.944Z,15.02
2022-10-20T10:52:30.556Z,12.43
2022-10-20T10:55:02.805Z,13.48
2022-10-20T10:57:48.779Z,12.02
2022-10-20T11:00:20.854Z,12.18
2022-10-20T11:02:53.966Z,13.68
2022-10-20T11:05:21.058Z,12.32
2022-10-20T11:07:54.574Z,17.30
2022-10-20T11:10:27.720Z,16.08
2022-10-20T11:13:07.244Z,16.65
2022-10-20T11:15:48.581Z,16.45
2022-10-20T11:18:24.979Z,15.32
2022-10-20T11:20:56.866Z,14.63
2022-10-20T11:23:46.716Z,11.45
2022-10-20T11:26:26.731Z,9.55
2022-10-20T11:28:57.161Z,11.98
2022-10-20T11:31:30.758Z,10.70
2022-10-20T11:34:10.920Z,8.77
2022-10-20T11:36:45.957Z,11.70
2022-10-20T11:39:19.178Z,14.52
2022-10-20T11:41:50.917Z,9.25
2022-10-20T11:44:26.185Z,11.27
2022-10-20T11:46:56.592Z,10.35
2022-10-20T11:49:23.984Z,10.93
2022-10-20T11:51:51.081Z,10.47
2022-10-20T11:54:33.287Z,11.35
2022-10-20T11:57:06.190Z,9.48
2022-10-20T11:59:42.112Z,10.15
2022-10-20T12:02:29.414Z,10.90
2022-10-20T12:05:22.603Z,11.15
2022-10-20T12:08:24.764Z,10.32
2022-10-20T12:11:08.248Z,9.40
2022-10-20T12:13:41.429Z,8.85
2022-10-20T12:16:14.579Z,7.68
2022-10-20T12:21:53.970Z,9.75
2022-10-20T12:24:40.981Z,10.10
2022-10-20T12:27:10.371Z,9.27
2022-10-20T12:29:37.469Z,10.38
2022-10-20T12:32:25.701Z,10.18
2022-10-20T12:34:54.071Z,11.40
2022-10-20T12:37:21.157Z,12.43
2022-10-20T12:39:48.395Z,13.10
2022-10-20T12:42:27.698Z,14.57
2022-10-20T12:44:57.769Z,15.25
2022-10-20T12:47:26.044Z,16.10
2022-10-20T12:52:21.913Z,17.17
2022-10-20T12:54:54.290Z,17.38
2022-10-20T12:57:25.115Z,17.25
2022-10-20T12:59:52.627Z,18.40
2022-10-20T13:02:20.508Z,17.98
2022-10-20T13:05:00.045Z,17.83
2022-10-20T13:07:45.898Z,18.38
2022-10-20T13:10:31.229Z,17.63
2022-10-20T13:13:04.376Z,19.05
2022-10-20T13:15:39.308Z,17.83
2022-10-20T13:18:12.465Z,18.55
2022-10-20T13:20:48.575Z,17.88
2022-10-20T13:23:16.121Z,18.40
2022-10-20T13:25:50.557Z,18.38
2022-10-20T13:28:28.577Z,17.83
2022-10-20T13:33:58.450Z,18.70
2022-10-20T13:36:21.339Z,17.35
2022-10-20T13:38:53.405Z,17.88
2022-10-20T13:41:30.181Z,17.23
2022-10-20T13:44:04.780Z,18.05
2022-10-20T13:46:42.853Z,17.70
2022-10-20T13:49:19.506Z,17.58
2022-10-20T13:51:52.500Z,18.13
2022-10-20T13:54:30.173Z,17.10
2022-10-20T13:56:57.789Z,16.95
2022-10-20T13:59:26.410Z,17.05
2022-10-20T14:01:58.338Z,16.95
2022-10-20T14:04:27.000Z,16.00
2022-10-20T14:06:54.427Z,16.58
2022-10-20T14:09:25.837Z,15.50
2022-10-20T14:12:04.163Z,15.88
2022-10-20T14:14:31.953Z,17.00
2022-10-20T14:17:00.786Z,16.63
2022-10-20T14:19:28.786Z,16.70
2022-10-20T14:21:57.423Z,16.30
2022-10-20T14:24:33.342Z,16.85
2022-10-20T14:27:01.470Z,16.27
2022-10-20T14:29:29.745Z,15.88
2022-10-20T14:31:57.216Z,16.00
2022-10-20T14:34:37.331Z,16.30
2022-10-20T14:37:08.600Z,16.00
2022-10-20T14:39:40.202Z,15.30
2022-10-20T14:42:26.539Z,14.93
2022-10-20T14:44:56.808Z,14.95
2022-10-20T14:47:24.375Z,15.40
2022-10-20T14:49:52.883Z,14.48
2022-10-20T14:52:21.784Z,15.27
2022-10-20T14:54:50.781Z,13.25
2022-10-20T14:57:17.886Z,15.05
2022-10-20T15:00:06.040Z,14.20
2022-10-20T15:02:41.788Z,14.10
2022-10-20T15:05:45.011Z,12.88
2022-10-20T15:08:17.684Z,13.27
2022-10-20T15:10:45.702Z,13.50
2022-10-20T15:13:28.294Z,13.55
2022-10-20T15:15:56.035Z,13.00
2022-10-20T15:18:24.844Z,12.80
2022-10-20T15:20:53.150Z,13.02
2022-10-20T15:23:28.627Z,12.65
2022-10-20T15:25:55.778Z,12.70
2022-10-20T15:28:31.785Z,12.48
2022-10-20T15:30:59.923Z,12.18
2022-10-20T15:33:27.137Z,12.73
2022-10-20T15:35:54.690Z,12.07
2022-10-20T15:38:21.907Z,12.20
2022-10-20T15:40:49.262Z,11.93
2022-10-20T15:43:18.022Z,12.18
2022-10-20T15:45:46.944Z,12.82
2022-10-20T15:48:14.121Z,11.63
2022-10-20T15:50:41.318Z,11.50
2022-10-20T15:53:08.560Z,11.27
2022-10-20T15:55:38.553Z,11.15
2022-10-20T15:58:05.716Z,12.00
2022-10-20T16:00:33.098Z,11.43
2022-10-20T16:03:02.656Z,11.23
2022-10-20T16:05:29.784Z,10.85
2022-10-20T16:07:56.918Z,10.82
2022-10-20T16:10:25.233Z,10.55
2022-10-20T16:12:52.494Z,10.93
2022-10-20T16:15:20.011Z,10.13
2022-10-20T16:20:19.546Z,10.07
2022-10-20T16:22:46.657Z,10.48
2022-10-20T16:25:13.969Z,10.13
2022-10-20T16:27:41.187Z,10.30
2022-10-20T16:30:08.599Z,10.27
2022-10-20T16:32:36.444Z,10.45
2022-10-20T16:37:31.910Z,10.65
2022-10-20T16:42:27.491Z,9.88
2022-10-20T16:44:54.619Z,11.07
2022-10-20T16:47:21.824Z,9.85
2022-10-20T16:49:48.984Z,10.07
2022-10-20T16:52:16.087Z,9.88
2022-10-20T16:54:43.287Z,9.77
2022-10-20T16:57:11.589Z,9.93
2022-10-20T16:59:38.974Z,9.90
2022-10-20T17:02:06.309Z,9.50
2022-10-20T17:04:33.617Z,9.73
2022-10-20T17:07:00.853Z,9.70
2022-10-20T17:09:29.973Z,9.70
2022-10-20T17:11:57.345Z,9.38
2022-10-20T17:14:24.505Z,10.10
2022-10-20T17:16:53.902Z,9.65
2022-10-20T17:19:21.017Z,10.25
2022-10-20T17:21:50.219Z,9.65
2022-10-20T17:24:19.625Z,9.82
2022-10-20T17:26:46.822Z,9.52
2022-10-20T17:29:14.410Z,8.93
2022-10-20T17:31:42.021Z,9.32
2022-10-20T17:34:09.504Z,9.75
2022-10-20T17:36:36.670Z,9.10
2022-10-20T17:39:08.574Z,9.27
2022-10-20T17:41:36.215Z,9.55
2022-10-20T17:44:06.206Z,9.15
2022-10-20T17:46:33.618Z,9.02
2022-10-20T17:49:03.692Z,9.40
2022-10-20T17:51:33.685Z,9.15
2022-10-20T17:54:02.093Z,9.50
2022-10-20T17:56:34.294Z,9.05
2022-10-20T17:59:05.238Z,9.07
2022-10-20T18:01:36.673Z,9.20
2022-10-20T18:04:05.548Z,8.88
2022-10-20T18:06:34.633Z,8.98
2022-10-20T18:09:03.308Z,8.45
2022-10-20T18:11:31.455Z,8.80
2022-10-20T18:14:02.248Z,8.63
2022-10-20T18:16:30.915Z,8.60
2022-10-20T18:21:30.877Z,8.75
2022-10-20T18:23:59.320Z,8.68
2022-10-20T18:26:26.799Z,8.32
2022-10-20T18:28:53.913Z,8.43
2022-10-20T18:31:24.800Z,8.45
2022-10-20T18:33:56.268Z,8.65
2022-10-20T18:36:23.991Z,8.57
2022-10-20T18:38:51.427Z,8.73
2022-10-20T18:41:19.706Z,8.32
2022-10-20T18:43:47.042Z,8.68
2022-10-20T18:46:15.595Z,8.13
2022-10-20T18:48:43.314Z,7.53
2022-10-20T18:51:11.641Z,8.90
2022-10-20T18:56:07.772Z,7.68
2022-10-20T18:58:39.188Z,8.43
2022-10-20T19:01:07.750Z,7.93
2022-10-20T19:03:37.242Z,7.85
2022-10-20T19:06:04.705Z,8.20
2022-10-20T19:08:31.937Z,8.30
2022-10-20T19:11:00.270Z,8.45
2022-10-20T19:13:30.868Z,8.20
2022-10-20T19:15:58.684Z,8.23
2022-10-20T19:18:26.829Z,7.88
2022-10-20T19:23:21.387Z,8.13
2022-10-20T19:25:48.522Z,8.13
2022-10-20T19:28:15.661Z,7.82
2022-10-20T19:30:42.793Z,7.90
2022-10-20T19:33:09.913Z,7.60
2022-10-20T19:35:37.051Z,8.15
2022-10-20T19:38:04.199Z,8.13
2022-10-20T19:40:31.353Z,8.63
2022-10-20T19:42:58.482Z,8.02
2022-10-20T19:45:26.054Z,8.38
2022-10-20T19:47:53.204Z,8.00
2022-10-20T19:50:20.353Z,7.95
2022-10-20T19:52:47.481Z,8.10
2022-10-20T19:55:14.849Z,8.20
2022-10-20T19:57:42.133Z,7.93
2022-10-20T20:00:09.447Z,7.97
2022-10-20T20:02:37.376Z,7.87
2022-10-20T20:05:05.248Z,8.40
2022-10-20T20:07:32.455Z,8.00
2022-10-20T20:09:59.551Z,8.25
2022-10-20T20:12:28.172Z,7.80
2022-10-20T20:14:55.432Z,8.68
2022-10-20T20:17:22.531Z,8.10
2022-10-20T20:19:49.665Z,8.07
2022-10-20T20:22:16.862Z,8.48
2022-10-20T20:24:43.960Z,8.60
2022-10-20T20:27:11.115Z,8.20
2022-10-20T20:29:38.677Z,7.85
2022-10-20T20:32:05.867Z,7.57
2022-10-20T20:34:32.987Z,8.30
2022-10-20T20:37:00.139Z,8.25
2022-10-20T20:39:27.332Z,8.20
2022-10-20T20:41:54.441Z,8.70
2022-10-20T20:46:53.853Z,8.10
2022-10-20T20:49:21.035Z,9.60
2022-10-20T20:51:48.197Z,8.43
2022-10-20T20:54:15.334Z,8.43
2022-10-20T20:56:42.826Z,8.55
2022-10-20T20:59:09.958Z,8.50
2022-10-20T21:01:37.139Z,8.32
2022-10-20T21:04:10.086Z,7.90
2022-10-20T21:07:00.867Z,8.23
2022-10-20T21:09:25.925Z,8.60
2022-10-20T21:11:53.069Z,8.75
2022-10-20T21:14:20.187Z,8.88
2022-10-20T21:16:47.409Z,8.90
2022-10-20T21:19:14.644Z,8.48
2022-10-20T21:21:44.276Z,8.30
2022-10-20T21:24:12.588Z,8.95
2022-10-20T21:26:39.749Z,9.32
2022-10-20T21:29:06.939Z,8.50
2022-10-20T21:31:34.184Z,9.00
2022-10-20T21:34:04.876Z,8.60
2022-10-20T21:36:34.649Z,8.43
2022-10-20T21:39:02.202Z,8.82
2022-10-20T21:41:30.522Z,8.50
2022-10-20T21:43:58.726Z,8.52
2022-10-20T21:48:54.448Z,8.93
2022-10-20T21:51:21.522Z,8.98
2022-10-20T21:53:48.751Z,8.98
2022-10-20T21:56:16.398Z,9.40
2022-10-20T21:58:44.125Z,8.68
2022-10-20T22:01:16.024Z,8.90
2022-10-20T22:03:43.816Z,9.05
2022-10-20T22:06:11.667Z,8.68
2022-10-20T22:08:40.233Z,8.95
2022-10-20T22:11:08.973Z,8.90
2022-10-20T22:13:36.198Z,8.48
2022-10-20T22:16:03.380Z,8.70
2022-10-20T22:18:31.008Z,9.27
2022-10-20T22:20:58.111Z,8.63
2022-10-20T22:23:25.240Z,9.48
2022-10-20T22:25:53.775Z,8.57
2022-10-20T22:28:23.445Z,8.85
2022-10-20T22:30:51.168Z,9.20
2022-10-20T22:33:18.858Z,8.48
2022-10-20T22:35:45.980Z,8.70
2022-10-20T22:38:13.588Z,8.73
2022-10-20T22:40:40.685Z,7.95
2022-10-20T22:43:07.813Z,8.85
2022-10-20T22:45:35.506Z,8.43
2022-10-20T22:48:02.651Z,8.45
2022-10-20T22:50:29.818Z,9.20
2022-10-20T22:52:56.948Z,8.90
2022-10-20T22:55:24.117Z,9.05
2022-10-20T22:57:51.868Z,8.80
2022-10-20T23:00:20.245Z,8.48
2022-10-20T23:02:47.389Z,8.88
2022-10-20T23:05:14.501Z,8.52
2022-10-20T23:07:41.707Z,8.10
2022-10-20T23:10:09.077Z,8.35
2022-10-20T23:12:36.590Z,8.30
2022-10-20T23:15:04.391Z,8.27
2022-10-20T23:17:31.467Z,8.18
2022-10-20T23:19:58.617Z,8.15
2022-10-20T23:22:25.864Z,8.85
2022-10-20T23:24:52.983Z,8.13
2022-10-20T23:27:20.079Z,8.35
2022-10-20T23:29:47.272Z,7.88
2022-10-20T23:32:14.401Z,7.75
2022-10-20T23:34:41.514Z,8.15
2022-10-20T23:37:08.618Z,7.43
2022-10-20T23:39:38.014Z,7.80
2022-10-20T23:42:07.305Z,8.05
2022-10-20T23:44:34.693Z,7.95
2022-10-20T23:47:01.795Z,8.07
2022-10-20T23:49:28.931Z,8.10
2022-10-20T23:51:56.178Z,7.60
2022-10-20T23:54:23.296Z,7.68
2022-10-20T23:56:53.161Z,7.70
2022-10-20T23:59:20.270Z,8.00
